sensor_id;sensor_type;location;lat;lon;timestamp;P1;durP1;ratioP1;P2;durP2;ratioP2
60078;SDS011;45951;45.824;8.824;2024-03-08T00:01:49;20.02;;;14.40;;
60078;SDS011;45951;45.824;8.824;2024-03-08T00:03:29;20.73;;;14.17;;
60078;SDS011;45951;45.824;8.824;2024-03-08T00:05:11;21.27;;;14.68;;
60078;SDS011;45951;45.824;8.824;2024-03-08T00:06:52;20.67;;;14.50;;
60078;SDS011;45951;45.824;8.824;2024-03-08T00:08:32;19.27;;;14.10;;
60078;SDS011;45951;45.824;8.824;2024-03-08T00:10:12;20.50;;;16.00;;
60078;SDS011;45951;45.824;8.824;2024-03-08T00:11:53;22.15;;;15.10;;
60078;SDS011;45951;45.824;8.824;2024-03-08T00:13:33;21.23;;;15.67;;
60078;SDS011;45951;45.824;8.824;2024-03-08T00:15:15;20.25;;;15.48;;
60078;SDS011;45951;45.824;8.824;2024-03-08T00:16:55;21.75;;;15.52;;
60078;SDS011;45951;45.824;8.824;2024-03-08T00:18:35;19.80;;;15.30;;
60078;SDS011;45951;45.824;8.824;2024-03-08T00:20:16;23.23;;;15.45;;
60078;SDS011;45951;45.824;8.824;2024-03-08T00:21:57;19.67;;;14.82;;
60078;SDS011;45951;45.824;8.824;2024-03-08T00:23:38;20.53;;;15.30;;
60078;SDS011;45951;45.824;8.824;2024-03-08T00:25:18;20.77;;;15.47;;
60078;SDS011;45951;45.824;8.824;2024-03-08T00:26:58;23.67;;;17.05;;
60078;SDS011;45951;45.824;8.824;2024-03-08T00:28:38;20.10;;;15.63;;
60078;SDS011;45951;45.824;8.824;2024-03-08T00:30:19;22.45;;;16.35;;
60078;SDS011;45951;45.824;8.824;2024-03-08T00:31:59;22.45;;;16.25;;
60078;SDS011;45951;45.824;8.824;2024-03-08T00:33:39;21.95;;;15.90;;
60078;SDS011;45951;45.824;8.824;2024-03-08T00:35:20;21.37;;;15.97;;
60078;SDS011;45951;45.824;8.824;2024-03-08T00:37:00;22.42;;;15.70;;
60078;SDS011;45951;45.824;8.824;2024-03-08T00:38:40;21.42;;;15.25;;
60078;SDS011;45951;45.824;8.824;2024-03-08T00:40:20;24.30;;;16.00;;
60078;SDS011;45951;45.824;8.824;2024-03-08T00:42:02;25.88;;;15.55;;
60078;SDS011;45951;45.824;8.824;2024-03-08T00:43:43;24.92;;;16.25;;
60078;SDS011;45951;45.824;8.824;2024-03-08T00:45:23;21.33;;;15.13;;
60078;SDS011;45951;45.824;8.824;2024-03-08T00:47:03;23.60;;;16.60;;
60078;SDS011;45951;45.824;8.824;2024-03-08T00:48:44;24.10;;;15.95;;
60078;SDS011;45951;45.824;8.824;2024-03-08T00:50:24;21.70;;;15.90;;
60078;SDS011;45951;45.824;8.824;2024-03-08T00:52:05;21.55;;;15.55;;
60078;SDS011;45951;45.824;8.824;2024-03-08T00:53:48;23.23;;;16.90;;
60078;SDS011;45951;45.824;8.824;2024-03-08T00:55:28;21.77;;;16.07;;
60078;SDS011;45951;45.824;8.824;2024-03-08T00:57:09;22.58;;;16.25;;
60078;SDS011;45951;45.824;8.824;2024-03-08T00:58:49;23.45;;;16.33;;
60078;SDS011;45951;45.824;8.824;2024-03-08T01:00:30;23.15;;;16.25;;
60078;SDS011;45951;45.824;8.824;2024-03-08T01:02:10;22.20;;;16.00;;
60078;SDS011;45951;45.824;8.824;2024-03-08T01:03:50;23.58;;;15.65;;
60078;SDS011;45951;45.824;8.824;2024-03-08T01:05:30;22.13;;;17.07;;
60078;SDS011;45951;45.824;8.824;2024-03-08T01:07:11;25.00;;;16.38;;
60078;SDS011;45951;45.824;8.824;2024-03-08T01:08:51;26.05;;;17.75;;
60078;SDS011;45951;45.824;8.824;2024-03-08T01:10:32;24.33;;;16.45;;
60078;SDS011;45951;45.824;8.824;2024-03-08T01:12:13;22.73;;;16.10;;
60078;SDS011;45951;45.824;8.824;2024-03-08T01:13:53;25.60;;;16.00;;
60078;SDS011;45951;45.824;8.824;2024-03-08T01:15:33;21.83;;;15.90;;
60078;SDS011;45951;45.824;8.824;2024-03-08T01:17:13;22.52;;;16.55;;
60078;SDS011;45951;45.824;8.824;2024-03-08T01:18:54;24.23;;;16.92;;
60078;SDS011;45951;45.824;8.824;2024-03-08T01:20:34;24.13;;;18.00;;
60078;SDS011;45951;45.824;8.824;2024-03-08T01:22:14;22.15;;;16.40;;
60078;SDS011;45951;45.824;8.824;2024-03-08T01:23:54;22.00;;;16.25;;
60078;SDS011;45951;45.824;8.824;2024-03-08T01:25:34;24.87;;;16.93;;
60078;SDS011;45951;45.824;8.824;2024-03-08T01:27:15;24.02;;;16.27;;
60078;SDS011;45951;45.824;8.824;2024-03-08T01:28:55;22.33;;;15.95;;
60078;SDS011;45951;45.824;8.824;2024-03-08T01:30:35;24.17;;;16.63;;
60078;SDS011;45951;45.824;8.824;2024-03-08T01:32:17;23.90;;;16.30;;
60078;SDS011;45951;45.824;8.824;2024-03-08T01:33:59;22.42;;;16.58;;
60078;SDS011;45951;45.824;8.824;2024-03-08T01:35:39;20.95;;;15.65;;
60078;SDS011;45951;45.824;8.824;2024-03-08T01:37:21;23.25;;;17.55;;
60078;SDS011;45951;45.824;8.824;2024-03-08T01:39:01;23.13;;;17.10;;
60078;SDS011;45951;45.824;8.824;2024-03-08T01:40:42;22.63;;;15.45;;
60078;SDS011;45951;45.824;8.824;2024-03-08T01:42:22;23.48;;;16.42;;
60078;SDS011;45951;45.824;8.824;2024-03-08T01:44:02;23.03;;;15.90;;
60078;SDS011;45951;45.824;8.824;2024-03-08T01:45:43;23.33;;;16.15;;
60078;SDS011;45951;45.824;8.824;2024-03-08T01:47:23;22.35;;;16.38;;
60078;SDS011;45951;45.824;8.824;2024-03-08T01:49:03;24.20;;;17.17;;
60078;SDS011;45951;45.824;8.824;2024-03-08T01:50:44;24.70;;;16.17;;
60078;SDS011;45951;45.824;8.824;2024-03-08T01:52:25;21.83;;;16.45;;
60078;SDS011;45951;45.824;8.824;2024-03-08T01:54:06;22.38;;;16.65;;
60078;SDS011;45951;45.824;8.824;2024-03-08T01:55:47;23.65;;;16.65;;
60078;SDS011;45951;45.824;8.824;2024-03-08T01:57:28;24.38;;;16.80;;
60078;SDS011;45951;45.824;8.824;2024-03-08T01:59:09;22.95;;;16.85;;
60078;SDS011;45951;45.824;8.824;2024-03-08T02:00:49;22.55;;;15.70;;
60078;SDS011;45951;45.824;8.824;2024-03-08T02:02:30;24.15;;;16.98;;
60078;SDS011;45951;45.824;8.824;2024-03-08T02:04:12;22.40;;;17.63;;
60078;SDS011;45951;45.824;8.824;2024-03-08T02:05:52;24.70;;;17.58;;
60078;SDS011;45951;45.824;8.824;2024-03-08T02:07:32;24.92;;;17.33;;
60078;SDS011;45951;45.824;8.824;2024-03-08T02:09:12;25.17;;;17.83;;
60078;SDS011;45951;45.824;8.824;2024-03-08T02:10:53;23.52;;;15.85;;
60078;SDS011;45951;45.824;8.824;2024-03-08T02:12:33;24.20;;;17.42;;
60078;SDS011;45951;45.824;8.824;2024-03-08T02:14:13;24.38;;;18.23;;
60078;SDS011;45951;45.824;8.824;2024-03-08T02:15:54;22.70;;;16.95;;
60078;SDS011;45951;45.824;8.824;2024-03-08T02:17:35;25.38;;;17.48;;
60078;SDS011;45951;45.824;8.824;2024-03-08T02:19:15;21.53;;;16.40;;
60078;SDS011;45951;45.824;8.824;2024-03-08T02:20:56;25.27;;;18.43;;
60078;SDS011;45951;45.824;8.824;2024-03-08T02:22:36;24.02;;;16.45;;
60078;SDS011;45951;45.824;8.824;2024-03-08T02:24:16;24.67;;;17.77;;
60078;SDS011;45951;45.824;8.824;2024-03-08T02:25:57;24.40;;;17.85;;
60078;SDS011;45951;45.824;8.824;2024-03-08T02:27:37;26.88;;;17.95;;
60078;SDS011;45951;45.824;8.824;2024-03-08T02:29:17;23.30;;;16.58;;
60078;SDS011;45951;45.824;8.824;2024-03-08T02:30:58;26.48;;;18.38;;
60078;SDS011;45951;45.824;8.824;2024-03-08T02:32:38;25.63;;;17.93;;
60078;SDS011;45951;45.824;8.824;2024-03-08T02:34:18;27.27;;;16.70;;
60078;SDS011;45951;45.824;8.824;2024-03-08T02:35:58;23.15;;;16.27;;
60078;SDS011;45951;45.824;8.824;2024-03-08T02:37:39;21.38;;;16.45;;
60078;SDS011;45951;45.824;8.824;2024-03-08T02:39:19;26.13;;;17.25;;
60078;SDS011;45951;45.824;8.824;2024-03-08T02:40:59;24.00;;;16.83;;
60078;SDS011;45951;45.824;8.824;2024-03-08T02:42:40;24.25;;;16.15;;
60078;SDS011;45951;45.824;8.824;2024-03-08T02:44:20;23.07;;;16.03;;
60078;SDS011;45951;45.824;8.824;2024-03-08T02:46:01;23.50;;;15.38;;
60078;SDS011;45951;45.824;8.824;2024-03-08T02:47:41;22.95;;;15.95;;
60078;SDS011;45951;45.824;8.824;2024-03-08T02:49:22;23.43;;;16.77;;
60078;SDS011;45951;45.824;8.824;2024-03-08T02:51:02;21.23;;;14.40;;
60078;SDS011;45951;45.824;8.824;2024-03-08T02:52:42;23.60;;;15.82;;
60078;SDS011;45951;45.824;8.824;2024-03-08T02:54:23;22.90;;;14.85;;
60078;SDS011;45951;45.824;8.824;2024-03-08T02:56:04;21.95;;;15.55;;
60078;SDS011;45951;45.824;8.824;2024-03-08T02:57:44;22.05;;;15.32;;
60078;SDS011;45951;45.824;8.824;2024-03-08T02:59:25;20.98;;;15.38;;
60078;SDS011;45951;45.824;8.824;2024-03-08T03:01:06;21.10;;;15.10;;
60078;SDS011;45951;45.824;8.824;2024-03-08T03:02:46;22.07;;;15.90;;
60078;SDS011;45951;45.824;8.824;2024-03-08T03:04:26;23.23;;;15.77;;
60078;SDS011;45951;45.824;8.824;2024-03-08T03:06:06;23.20;;;15.43;;
60078;SDS011;45951;45.824;8.824;2024-03-08T03:07:47;23.67;;;15.88;;
60078;SDS011;45951;45.824;8.824;2024-03-08T03:09:28;23.13;;;15.02;;
60078;SDS011;45951;45.824;8.824;2024-03-08T03:11:08;18.60;;;14.90;;
60078;SDS011;45951;45.824;8.824;2024-03-08T03:12:48;22.40;;;15.00;;
60078;SDS011;45951;45.824;8.824;2024-03-08T03:14:29;24.45;;;16.08;;
60078;SDS011;45951;45.824;8.824;2024-03-08T03:16:09;22.00;;;14.93;;
60078;SDS011;45951;45.824;8.824;2024-03-08T03:17:50;23.08;;;15.90;;
60078;SDS011;45951;45.824;8.824;2024-03-08T03:19:31;24.40;;;15.63;;
60078;SDS011;45951;45.824;8.824;2024-03-08T03:21:11;21.35;;;14.70;;
60078;SDS011;45951;45.824;8.824;2024-03-08T03:22:53;21.05;;;15.65;;
60078;SDS011;45951;45.824;8.824;2024-03-08T03:24:33;19.98;;;14.88;;
60078;SDS011;45951;45.824;8.824;2024-03-08T03:26:13;22.40;;;15.40;;
60078;SDS011;45951;45.824;8.824;2024-03-08T03:27:53;25.05;;;15.57;;
60078;SDS011;45951;45.824;8.824;2024-03-08T03:29:37;22.17;;;15.50;;
60078;SDS011;45951;45.824;8.824;2024-03-08T03:31:17;21.10;;;15.15;;
60078;SDS011;45951;45.824;8.824;2024-03-08T03:32:59;23.42;;;16.73;;
60078;SDS011;45951;45.824;8.824;2024-03-08T03:34:40;22.25;;;15.57;;
60078;SDS011;45951;45.824;8.824;2024-03-08T03:36:21;21.63;;;15.38;;
60078;SDS011;45951;45.824;8.824;2024-03-08T03:38:01;23.10;;;16.52;;
60078;SDS011;45951;45.824;8.824;2024-03-08T03:39:50;23.65;;;14.93;;
60078;SDS011;45951;45.824;8.824;2024-03-08T03:41:32;20.48;;;15.82;;
60078;SDS011;45951;45.824;8.824;2024-03-08T03:43:14;23.45;;;15.88;;
60078;SDS011;45951;45.824;8.824;2024-03-08T03:44:54;22.88;;;16.02;;
60078;SDS011;45951;45.824;8.824;2024-03-08T03:46:34;22.57;;;14.33;;
60078;SDS011;45951;45.824;8.824;2024-03-08T03:48:15;27.00;;;15.85;;
60078;SDS011;45951;45.824;8.824;2024-03-08T03:49:56;23.73;;;15.98;;
60078;SDS011;45951;45.824;8.824;2024-03-08T03:51:41;22.77;;;15.52;;
60078;SDS011;45951;45.824;8.824;2024-03-08T03:53:21;23.77;;;16.20;;
60078;SDS011;45951;45.824;8.824;2024-03-08T03:55:02;23.03;;;15.63;;
60078;SDS011;45951;45.824;8.824;2024-03-08T03:56:44;23.17;;;15.82;;
60078;SDS011;45951;45.824;8.824;2024-03-08T03:58:25;24.75;;;16.45;;
60078;SDS011;45951;45.824;8.824;2024-03-08T04:00:07;24.10;;;15.95;;
60078;SDS011;45951;45.824;8.824;2024-03-08T04:01:50;23.55;;;16.13;;
60078;SDS011;45951;45.824;8.824;2024-03-08T04:03:30;22.88;;;15.48;;
60078;SDS011;45951;45.824;8.824;2024-03-08T04:05:11;25.05;;;16.23;;
60078;SDS011;45951;45.824;8.824;2024-03-08T04:06:51;25.70;;;16.10;;
60078;SDS011;45951;45.824;8.824;2024-03-08T04:08:31;28.03;;;16.57;;
60078;SDS011;45951;45.824;8.824;2024-03-08T04:10:14;23.08;;;15.75;;
60078;SDS011;45951;45.824;8.824;2024-03-08T04:11:54;23.05;;;15.95;;
60078;SDS011;45951;45.824;8.824;2024-03-08T04:13:35;23.38;;;15.85;;
60078;SDS011;45951;45.824;8.824;2024-03-08T04:15:16;25.45;;;16.27;;
60078;SDS011;45951;45.824;8.824;2024-03-08T04:16:56;22.63;;;14.95;;
60078;SDS011;45951;45.824;8.824;2024-03-08T04:18:37;21.97;;;15.30;;
60078;SDS011;45951;45.824;8.824;2024-03-08T04:20:17;25.38;;;16.63;;
60078;SDS011;45951;45.824;8.824;2024-03-08T04:21:58;25.83;;;16.30;;
60078;SDS011;45951;45.824;8.824;2024-03-08T04:23:38;26.45;;;15.43;;
60078;SDS011;45951;45.824;8.824;2024-03-08T04:25:18;24.35;;;16.60;;
60078;SDS011;45951;45.824;8.824;2024-03-08T04:27:00;24.13;;;16.83;;
60078;SDS011;45951;45.824;8.824;2024-03-08T04:28:40;22.63;;;15.70;;
60078;SDS011;45951;45.824;8.824;2024-03-08T04:30:21;23.80;;;16.00;;
60078;SDS011;45951;45.824;8.824;2024-03-08T04:32:05;25.67;;;16.42;;
60078;SDS011;45951;45.824;8.824;2024-03-08T04:33:46;24.42;;;16.05;;
60078;SDS011;45951;45.824;8.824;2024-03-08T04:35:26;24.60;;;16.90;;
60078;SDS011;45951;45.824;8.824;2024-03-08T04:37:07;25.27;;;16.83;;
60078;SDS011;45951;45.824;8.824;2024-03-08T04:38:50;23.98;;;16.40;;
60078;SDS011;45951;45.824;8.824;2024-03-08T04:40:31;24.33;;;16.20;;
60078;SDS011;45951;45.824;8.824;2024-03-08T04:42:11;23.95;;;15.93;;
60078;SDS011;45951;45.824;8.824;2024-03-08T04:43:51;23.27;;;16.33;;
60078;SDS011;45951;45.824;8.824;2024-03-08T04:45:32;26.10;;;17.17;;
60078;SDS011;45951;45.824;8.824;2024-03-08T04:47:12;26.83;;;17.07;;
60078;SDS011;45951;45.824;8.824;2024-03-08T04:48:52;27.50;;;17.00;;
60078;SDS011;45951;45.824;8.824;2024-03-08T04:50:32;26.80;;;16.10;;
60078;SDS011;45951;45.824;8.824;2024-03-08T04:52:12;26.53;;;17.10;;
60078;SDS011;45951;45.824;8.824;2024-03-08T04:53:53;25.20;;;16.83;;
60078;SDS011;45951;45.824;8.824;2024-03-08T04:55:34;25.85;;;16.95;;
60078;SDS011;45951;45.824;8.824;2024-03-08T04:57:14;24.30;;;17.50;;
60078;SDS011;45951;45.824;8.824;2024-03-08T04:58:54;28.20;;;17.25;;
60078;SDS011;45951;45.824;8.824;2024-03-08T05:00:34;25.83;;;16.75;;
60078;SDS011;45951;45.824;8.824;2024-03-08T05:02:15;24.00;;;17.48;;
60078;SDS011;45951;45.824;8.824;2024-03-08T05:03:55;28.30;;;17.83;;
60078;SDS011;45951;45.824;8.824;2024-03-08T05:05:35;29.87;;;18.00;;
60078;SDS011;45951;45.824;8.824;2024-03-08T05:07:16;27.42;;;17.48;;
60078;SDS011;45951;45.824;8.824;2024-03-08T05:08:56;26.65;;;17.35;;
60078;SDS011;45951;45.824;8.824;2024-03-08T05:10:37;28.60;;;17.40;;
60078;SDS011;45951;45.824;8.824;2024-03-08T05:12:17;27.73;;;17.92;;
60078;SDS011;45951;45.824;8.824;2024-03-08T05:13:58;26.40;;;18.30;;
60078;SDS011;45951;45.824;8.824;2024-03-08T05:15:38;28.20;;;17.55;;
60078;SDS011;45951;45.824;8.824;2024-03-08T05:17:19;25.10;;;17.17;;
60078;SDS011;45951;45.824;8.824;2024-03-08T05:18:59;28.52;;;17.83;;
60078;SDS011;45951;45.824;8.824;2024-03-08T05:20:39;28.65;;;17.95;;
60078;SDS011;45951;45.824;8.824;2024-03-08T05:22:21;26.00;;;17.05;;
60078;SDS011;45951;45.824;8.824;2024-03-08T05:24:01;27.48;;;18.35;;
60078;SDS011;45951;45.824;8.824;2024-03-08T05:25:42;26.23;;;17.10;;
60078;SDS011;45951;45.824;8.824;2024-03-08T05:27:22;28.00;;;17.67;;
60078;SDS011;45951;45.824;8.824;2024-03-08T05:29:03;26.10;;;17.60;;
60078;SDS011;45951;45.824;8.824;2024-03-08T05:30:43;28.95;;;17.90;;
60078;SDS011;45951;45.824;8.824;2024-03-08T05:32:23;28.65;;;17.45;;
60078;SDS011;45951;45.824;8.824;2024-03-08T05:34:04;28.45;;;18.17;;
60078;SDS011;45951;45.824;8.824;2024-03-08T05:35:45;25.95;;;16.05;;
60078;SDS011;45951;45.824;8.824;2024-03-08T05:37:25;25.33;;;17.38;;
60078;SDS011;45951;45.824;8.824;2024-03-08T05:39:06;27.08;;;17.45;;
60078;SDS011;45951;45.824;8.824;2024-03-08T05:40:46;28.67;;;17.02;;
60078;SDS011;45951;45.824;8.824;2024-03-08T05:42:26;24.42;;;16.67;;
60078;SDS011;45951;45.824;8.824;2024-03-08T05:44:08;27.15;;;17.23;;
60078;SDS011;45951;45.824;8.824;2024-03-08T05:45:48;26.38;;;18.02;;
60078;SDS011;45951;45.824;8.824;2024-03-08T05:47:29;24.15;;;17.05;;
60078;SDS011;45951;45.824;8.824;2024-03-08T05:49:09;28.93;;;17.03;;
60078;SDS011;45951;45.824;8.824;2024-03-08T05:50:50;26.88;;;17.00;;
60078;SDS011;45951;45.824;8.824;2024-03-08T05:52:30;26.90;;;16.92;;
60078;SDS011;45951;45.824;8.824;2024-03-08T05:54:11;26.08;;;16.90;;
60078;SDS011;45951;45.824;8.824;2024-03-08T05:55:51;24.42;;;16.65;;
60078;SDS011;45951;45.824;8.824;2024-03-08T05:57:31;25.80;;;16.60;;
60078;SDS011;45951;45.824;8.824;2024-03-08T05:59:12;25.80;;;17.40;;
60078;SDS011;45951;45.824;8.824;2024-03-08T06:00:52;27.00;;;16.92;;
60078;SDS011;45951;45.824;8.824;2024-03-08T06:02:32;25.50;;;16.87;;
60078;SDS011;45951;45.824;8.824;2024-03-08T06:04:13;25.80;;;16.85;;
60078;SDS011;45951;45.824;8.824;2024-03-08T06:05:54;25.33;;;16.85;;
60078;SDS011;45951;45.824;8.824;2024-03-08T06:07:36;24.58;;;15.98;;
60078;SDS011;45951;45.824;8.824;2024-03-08T06:09:20;24.20;;;15.40;;
60078;SDS011;45951;45.824;8.824;2024-03-08T06:11:03;24.83;;;16.35;;
60078;SDS011;45951;45.824;8.824;2024-03-08T06:12:43;26.73;;;17.05;;
60078;SDS011;45951;45.824;8.824;2024-03-08T06:14:23;25.52;;;16.83;;
60078;SDS011;45951;45.824;8.824;2024-03-08T06:16:03;28.77;;;17.25;;
60078;SDS011;45951;45.824;8.824;2024-03-08T06:17:44;24.85;;;16.13;;
60078;SDS011;45951;45.824;8.824;2024-03-08T06:19:24;26.38;;;16.00;;
60078;SDS011;45951;45.824;8.824;2024-03-08T06:21:05;25.10;;;16.67;;
60078;SDS011;45951;45.824;8.824;2024-03-08T06:22:45;25.75;;;16.55;;
60078;SDS011;45951;45.824;8.824;2024-03-08T06:24:25;26.13;;;16.27;;
60078;SDS011;45951;45.824;8.824;2024-03-08T06:26:06;26.95;;;16.75;;
60078;SDS011;45951;45.824;8.824;2024-03-08T06:27:46;24.40;;;16.23;;
60078;SDS011;45951;45.824;8.824;2024-03-08T06:29:26;24.55;;;17.65;;
60078;SDS011;45951;45.824;8.824;2024-03-08T06:31:07;25.33;;;16.25;;
60078;SDS011;45951;45.824;8.824;2024-03-08T06:32:48;23.77;;;16.55;;
60078;SDS011;45951;45.824;8.824;2024-03-08T06:34:28;24.48;;;16.25;;
60078;SDS011;45951;45.824;8.824;2024-03-08T06:36:11;24.50;;;16.30;;
60078;SDS011;45951;45.824;8.824;2024-03-08T06:37:51;25.17;;;15.75;;
60078;SDS011;45951;45.824;8.824;2024-03-08T06:39:32;24.02;;;15.52;;
60078;SDS011;45951;45.824;8.824;2024-03-08T06:41:12;23.52;;;15.48;;
60078;SDS011;45951;45.824;8.824;2024-03-08T06:42:55;26.83;;;16.58;;
60078;SDS011;45951;45.824;8.824;2024-03-08T06:44:35;26.23;;;16.60;;
60078;SDS011;45951;45.824;8.824;2024-03-08T06:46:15;25.45;;;16.30;;
60078;SDS011;45951;45.824;8.824;2024-03-08T06:47:56;23.85;;;15.77;;
60078;SDS011;45951;45.824;8.824;2024-03-08T06:49:36;23.08;;;14.30;;
60078;SDS011;45951;45.824;8.824;2024-03-08T06:51:17;22.23;;;14.40;;
60078;SDS011;45951;45.824;8.824;2024-03-08T06:52:57;22.63;;;15.00;;
60078;SDS011;45951;45.824;8.824;2024-03-08T06:54:39;23.25;;;15.27;;
60078;SDS011;45951;45.824;8.824;2024-03-08T06:56:20;24.98;;;16.15;;
60078;SDS011;45951;45.824;8.824;2024-03-08T06:58:02;23.70;;;15.75;;
60078;SDS011;45951;45.824;8.824;2024-03-08T06:59:43;22.55;;;13.93;;
60078;SDS011;45951;45.824;8.824;2024-03-08T07:01:23;23.65;;;15.82;;
60078;SDS011;45951;45.824;8.824;2024-03-08T07:03:03;23.73;;;15.10;;
60078;SDS011;45951;45.824;8.824;2024-03-08T07:04:46;23.42;;;14.85;;
60078;SDS011;45951;45.824;8.824;2024-03-08T07:06:27;26.67;;;16.40;;
60078;SDS011;45951;45.824;8.824;2024-03-08T07:08:08;25.38;;;15.25;;
60078;SDS011;45951;45.824;8.824;2024-03-08T07:09:48;22.45;;;13.90;;
60078;SDS011;45951;45.824;8.824;2024-03-08T07:11:29;23.77;;;14.68;;
60078;SDS011;45951;45.824;8.824;2024-03-08T07:13:09;22.50;;;13.70;;
60078;SDS011;45951;45.824;8.824;2024-03-08T07:14:49;23.00;;;15.23;;
60078;SDS011;45951;45.824;8.824;2024-03-08T07:16:30;24.50;;;14.97;;
60078;SDS011;45951;45.824;8.824;2024-03-08T07:18:10;22.35;;;14.60;;
60078;SDS011;45951;45.824;8.824;2024-03-08T07:19:54;21.02;;;14.02;;
60078;SDS011;45951;45.824;8.824;2024-03-08T07:21:34;22.92;;;15.10;;
60078;SDS011;45951;45.824;8.824;2024-03-08T07:23:14;22.70;;;14.87;;
60078;SDS011;45951;45.824;8.824;2024-03-08T07:25:15;18.30;;;12.80;;
60078;SDS011;45951;45.824;8.824;2024-03-08T07:27:01;20.83;;;13.90;;
60078;SDS011;45951;45.824;8.824;2024-03-08T07:28:41;25.23;;;14.48;;
60078;SDS011;45951;45.824;8.824;2024-03-08T07:30:22;21.33;;;13.52;;
60078;SDS011;45951;45.824;8.824;2024-03-08T07:32:21;21.17;;;12.45;;
60078;SDS011;45951;45.824;8.824;2024-03-08T07:34:01;21.88;;;13.48;;
60078;SDS011;45951;45.824;8.824;2024-03-08T07:35:43;22.25;;;13.02;;
60078;SDS011;45951;45.824;8.824;2024-03-08T07:37:25;21.20;;;12.80;;
60078;SDS011;45951;45.824;8.824;2024-03-08T07:39:05;22.08;;;13.32;;
60078;SDS011;45951;45.824;8.824;2024-03-08T07:40:51;19.95;;;11.98;;
60078;SDS011;45951;45.824;8.824;2024-03-08T07:42:32;21.40;;;13.48;;
60078;SDS011;45951;45.824;8.824;2024-03-08T07:44:12;20.87;;;12.50;;
60078;SDS011;45951;45.824;8.824;2024-03-08T07:45:54;22.25;;;13.40;;
60078;SDS011;45951;45.824;8.824;2024-03-08T07:47:35;20.95;;;12.57;;
60078;SDS011;45951;45.824;8.824;2024-03-08T07:49:16;19.45;;;12.98;;
60078;SDS011;45951;45.824;8.824;2024-03-08T07:50:56;21.98;;;13.63;;
60078;SDS011;45951;45.824;8.824;2024-03-08T07:52:37;20.60;;;13.40;;
60078;SDS011;45951;45.824;8.824;2024-03-08T07:54:17;21.45;;;14.07;;
60078;SDS011;45951;45.824;8.824;2024-03-08T07:55:58;22.15;;;13.20;;
60078;SDS011;45951;45.824;8.824;2024-03-08T07:57:38;19.90;;;13.03;;
60078;SDS011;45951;45.824;8.824;2024-03-08T07:59:18;18.92;;;12.77;;
60078;SDS011;45951;45.824;8.824;2024-03-08T08:00:58;20.23;;;12.90;;
60078;SDS011;45951;45.824;8.824;2024-03-08T08:02:39;21.55;;;13.68;;
60078;SDS011;45951;45.824;8.824;2024-03-08T08:04:19;19.58;;;13.18;;
60078;SDS011;45951;45.824;8.824;2024-03-08T08:06:04;22.08;;;13.93;;
60078;SDS011;45951;45.824;8.824;2024-03-08T08:07:45;20.58;;;13.82;;
60078;SDS011;45951;45.824;8.824;2024-03-08T08:09:26;20.98;;;12.98;;
60078;SDS011;45951;45.824;8.824;2024-03-08T08:11:14;21.50;;;14.50;;
60078;SDS011;45951;45.824;8.824;2024-03-08T08:12:58;18.40;;;11.68;;
60078;SDS011;45951;45.824;8.824;2024-03-08T08:14:38;21.75;;;13.38;;
60078;SDS011;45951;45.824;8.824;2024-03-08T08:16:19;19.92;;;12.77;;
60078;SDS011;45951;45.824;8.824;2024-03-08T08:17:59;21.38;;;13.45;;
60078;SDS011;45951;45.824;8.824;2024-03-08T08:19:40;22.10;;;13.68;;
60078;SDS011;45951;45.824;8.824;2024-03-08T08:21:21;21.27;;;12.95;;
60078;SDS011;45951;45.824;8.824;2024-03-08T08:23:02;20.00;;;12.77;;
60078;SDS011;45951;45.824;8.824;2024-03-08T08:24:43;22.23;;;13.15;;
60078;SDS011;45951;45.824;8.824;2024-03-08T08:26:23;20.58;;;12.55;;
60078;SDS011;45951;45.824;8.824;2024-03-08T08:28:06;19.45;;;12.75;;
60078;SDS011;45951;45.824;8.824;2024-03-08T08:29:46;17.33;;;12.55;;
60078;SDS011;45951;45.824;8.824;2024-03-08T08:31:26;19.45;;;13.00;;
60078;SDS011;45951;45.824;8.824;2024-03-08T08:33:07;18.67;;;12.25;;
60078;SDS011;45951;45.824;8.824;2024-03-08T08:34:48;17.27;;;11.18;;
60078;SDS011;45951;45.824;8.824;2024-03-08T08:36:28;19.90;;;12.27;;
60078;SDS011;45951;45.824;8.824;2024-03-08T08:38:09;18.95;;;12.45;;
60078;SDS011;45951;45.824;8.824;2024-03-08T08:39:50;19.30;;;12.82;;
60078;SDS011;45951;45.824;8.824;2024-03-08T08:41:31;18.30;;;12.43;;
60078;SDS011;45951;45.824;8.824;2024-03-08T08:43:11;19.42;;;13.75;;
60078;SDS011;45951;45.824;8.824;2024-03-08T08:44:52;18.00;;;12.90;;
60078;SDS011;45951;45.824;8.824;2024-03-08T08:46:32;20.60;;;12.93;;
60078;SDS011;45951;45.824;8.824;2024-03-08T08:48:13;19.25;;;13.15;;
60078;SDS011;45951;45.824;8.824;2024-03-08T08:49:53;18.88;;;13.05;;
60078;SDS011;45951;45.824;8.824;2024-03-08T08:51:34;23.23;;;12.68;;
60078;SDS011;45951;45.824;8.824;2024-03-08T08:53:14;20.13;;;13.43;;
60078;SDS011;45951;45.824;8.824;2024-03-08T08:54:54;17.95;;;12.43;;
60078;SDS011;45951;45.824;8.824;2024-03-08T08:56:35;18.20;;;11.52;;
60078;SDS011;45951;45.824;8.824;2024-03-08T08:58:15;19.88;;;11.93;;
60078;SDS011;45951;45.824;8.824;2024-03-08T08:59:55;18.95;;;11.60;;
60078;SDS011;45951;45.824;8.824;2024-03-08T09:01:35;19.90;;;12.20;;
60078;SDS011;45951;45.824;8.824;2024-03-08T09:03:15;16.20;;;10.87;;
60078;SDS011;45951;45.824;8.824;2024-03-08T09:04:57;19.70;;;11.65;;
60078;SDS011;45951;45.824;8.824;2024-03-08T09:06:37;18.42;;;12.23;;
60078;SDS011;45951;45.824;8.824;2024-03-08T09:08:17;16.15;;;11.10;;
60078;SDS011;45951;45.824;8.824;2024-03-08T09:09:58;15.95;;;10.65;;
60078;SDS011;45951;45.824;8.824;2024-03-08T09:11:38;17.75;;;11.13;;
60078;SDS011;45951;45.824;8.824;2024-03-08T09:13:21;17.17;;;11.27;;
60078;SDS011;45951;45.824;8.824;2024-03-08T09:15:01;17.02;;;11.40;;
60078;SDS011;45951;45.824;8.824;2024-03-08T09:16:42;17.27;;;11.30;;
60078;SDS011;45951;45.824;8.824;2024-03-08T09:18:22;18.15;;;12.07;;
60078;SDS011;45951;45.824;8.824;2024-03-08T09:20:04;15.77;;;11.07;;
60078;SDS011;45951;45.824;8.824;2024-03-08T09:21:44;16.65;;;10.82;;
60078;SDS011;45951;45.824;8.824;2024-03-08T09:23:24;15.20;;;10.70;;
60078;SDS011;45951;45.824;8.824;2024-03-08T09:25:05;15.75;;;10.15;;
60078;SDS011;45951;45.824;8.824;2024-03-08T09:26:47;17.13;;;11.77;;
60078;SDS011;45951;45.824;8.824;2024-03-08T09:28:27;17.02;;;11.68;;
60078;SDS011;45951;45.824;8.824;2024-03-08T09:30:08;14.68;;;10.52;;
60078;SDS011;45951;45.824;8.824;2024-03-08T09:31:48;19.23;;;11.00;;
60078;SDS011;45951;45.824;8.824;2024-03-08T09:33:28;15.32;;;10.35;;
60078;SDS011;45951;45.824;8.824;2024-03-08T09:35:09;18.55;;;10.82;;
60078;SDS011;45951;45.824;8.824;2024-03-08T09:36:51;16.70;;;10.27;;
60078;SDS011;45951;45.824;8.824;2024-03-08T09:38:32;17.27;;;10.98;;
60078;SDS011;45951;45.824;8.824;2024-03-08T09:40:12;16.87;;;10.70;;
60078;SDS011;45951;45.824;8.824;2024-03-08T09:41:55;18.33;;;10.50;;
60078;SDS011;45951;45.824;8.824;2024-03-08T09:43:35;16.97;;;10.47;;
60078;SDS011;45951;45.824;8.824;2024-03-08T09:45:16;15.63;;;10.23;;
60078;SDS011;45951;45.824;8.824;2024-03-08T09:46:57;16.13;;;9.88;;
60078;SDS011;45951;45.824;8.824;2024-03-08T09:48:38;15.35;;;9.98;;
60078;SDS011;45951;45.824;8.824;2024-03-08T09:50:21;15.75;;;10.45;;